createdAt,value
2019-05-12T00:03:12.217Z,8.35
2019-05-12T00:08:08.201Z,8.35
2019-05-12T00:13:02.172Z,8.33
2019-05-12T00:17:58.402Z,8.31
2019-05-12T00:22:53.920Z,8.34
2019-05-12T00:27:48.687Z,8.23
2019-05-12T00:32:43.163Z,8.13
2019-05-12T00:37:38.183Z,8.11
2019-05-12T00:42:32.445Z,8.04
2019-05-12T00:47:28.035Z,7.94
2019-05-12T00:52:22.105Z,7.85
2019-05-12T00:57:18.115Z,7.69
2019-05-12T01:02:12.065Z,7.43
2019-05-12T01:07:08.519Z,7.40
2019-05-12T01:12:01.961Z,7.36
2019-05-12T01:16:57.873Z,7.32
2019-05-12T01:21:51.914Z,7.19
2019-05-12T01:26:47.620Z,7.13
2019-05-12T01:31:43.766Z,7.10
2019-05-12T01:36:38.206Z,7.12
2019-05-12T01:41:32.304Z,7.14
2019-05-12T01:46:28.278Z,7.42
2019-05-12T01:51:22.127Z,7.66
2019-05-12T01:56:18.170Z,7.70
2019-05-12T02:01:11.968Z,7.91
2019-05-12T02:06:08.277Z,7.87
2019-05-12T02:11:20.345Z,7.97
2019-05-12T02:16:14.371Z,7.92
2019-05-12T02:21:08.493Z,8.00
2019-05-12T02:26:02.609Z,8.02
2019-05-12T02:30:58.944Z,8.20
2019-05-12T02:35:54.800Z,8.20
2019-05-12T02:40:48.411Z,8.00
2019-05-12T02:45:44.650Z,7.94
2019-05-12T02:50:38.411Z,7.87
2019-05-12T02:55:34.870Z,7.88
2019-05-12T03:00:28.891Z,7.80
2019-05-12T03:05:24.831Z,7.81
2019-05-12T03:10:18.815Z,7.79
2019-05-12T03:15:15.228Z,7.63
2019-05-12T03:20:08.898Z,7.52
2019-05-12T03:25:14.771Z,7.30
2019-05-12T03:29:59.737Z,7.27
2019-05-12T03:34:57.933Z,7.34
2019-05-12T03:39:49.572Z,7.25
2019-05-12T03:44:44.513Z,7.10
2019-05-12T03:49:38.719Z,6.94
2019-05-12T03:54:34.897Z,6.65
2019-05-12T03:59:28.535Z,6.79
2019-05-12T04:04:24.402Z,6.75
2019-05-12T04:09:18.464Z,6.74
2019-05-12T04:14:14.839Z,6.69
2019-05-12T04:19:08.513Z,6.72
2019-05-12T04:24:05.489Z,6.66
2019-05-12T04:28:59.214Z,6.73
2019-05-12T04:33:54.740Z,6.98
2019-05-12T04:38:48.928Z,7.22
2019-05-12T04:43:44.746Z,7.32
2019-05-12T04:48:38.739Z,7.47
2019-05-12T04:53:35.262Z,7.93
2019-05-12T04:58:28.611Z,8.08
2019-05-12T05:03:24.747Z,8.29
2019-05-12T05:08:19.782Z,8.48
2019-05-12T05:13:14.930Z,8.72
2019-05-12T05:18:09.373Z,9.02
2019-05-12T05:23:03.775Z,9.06
2019-05-12T05:27:57.966Z,9.34
2019-05-12T05:32:53.567Z,9.49
2019-05-12T05:37:47.580Z,9.91
2019-05-12T05:42:43.727Z,10.12
2019-05-12T05:47:37.458Z,10.39
2019-05-12T05:52:34.173Z,10.61
2019-05-12T05:57:29.729Z,10.72
2019-05-12T06:02:31.283Z,10.87
2019-05-12T06:07:23.898Z,10.89
2019-05-12T06:12:14.931Z,11.03
2019-05-12T06:17:08.908Z,11.32
2019-05-12T06:22:03.946Z,11.56
2019-05-12T06:27:00.731Z,11.90
2019-05-12T06:31:54.297Z,11.94
2019-05-12T06:36:48.370Z,11.82
2019-05-12T06:41:44.372Z,12.24
2019-05-12T06:46:38.234Z,12.81
2019-05-12T06:51:33.798Z,12.91
2019-05-12T06:56:28.019Z,12.86
2019-05-12T07:01:24.163Z,12.69
2019-05-12T07:06:19.847Z,12.10
2019-05-12T07:11:14.418Z,11.95
2019-05-12T07:16:19.072Z,11.67
2019-05-12T07:21:09.420Z,11.38
2019-05-12T07:26:14.170Z,11.54
2019-05-12T07:31:03.717Z,12.61
2019-05-12T07:36:01.375Z,13.46
2019-05-12T07:40:53.700Z,14.05
2019-05-12T07:45:48.026Z,14.15
2019-05-12T07:50:43.332Z,14.57
2019-05-12T07:55:39.730Z,14.99
2019-05-12T08:00:44.530Z,15.33
2019-05-12T08:05:38.461Z,14.38
2019-05-12T08:10:34.205Z,13.75
2019-05-12T08:15:28.341Z,13.51
2019-05-12T08:20:23.875Z,13.14
2019-05-12T08:25:18.901Z,13.24
2019-05-12T08:30:14.098Z,13.73
2019-05-12T08:35:08.390Z,14.56
2019-05-12T08:40:07.801Z,14.99
2019-05-12T08:45:05.221Z,15.38
2019-05-12T08:49:59.705Z,14.96
2019-05-12T08:54:53.794Z,13.96
2019-05-12T08:59:47.857Z,13.28
2019-05-12T09:04:45.419Z,13.51
2019-05-12T09:09:37.701Z,14.89
2019-05-12T09:14:33.507Z,16.41
2019-05-12T09:19:27.849Z,15.70
2019-05-12T09:24:27.175Z,14.70
2019-05-12T09:29:19.921Z,14.00
2019-05-12T09:34:16.407Z,13.77
2019-05-12T09:39:10.049Z,13.97
2019-05-12T09:44:04.629Z,14.01
2019-05-12T09:49:03.915Z,14.20
2019-05-12T09:53:57.650Z,14.76
2019-05-12T09:59:01.650Z,16.40
2019-05-12T10:03:47.604Z,17.80
2019-05-12T10:08:43.454Z,16.84
2019-05-12T10:13:37.633Z,15.57
2019-05-12T10:18:33.554Z,15.45
2019-05-12T10:23:27.583Z,15.03
2019-05-12T10:28:23.635Z,15.73
2019-05-12T10:33:17.759Z,17.44
2019-05-12T10:38:13.677Z,19.14
2019-05-12T10:43:07.984Z,19.94
2019-05-12T10:48:03.756Z,20.57
2019-05-12T10:52:57.924Z,22.15
2019-05-12T10:57:52.884Z,21.65
2019-05-12T11:02:48.003Z,21.85
2019-05-12T11:07:43.559Z,22.65
2019-05-12T11:12:37.921Z,21.26
2019-05-12T11:17:53.409Z,19.53
2019-05-12T11:22:47.578Z,20.53
2019-05-12T11:27:43.717Z,22.22
2019-05-12T11:32:38.091Z,21.81
2019-05-12T11:37:33.829Z,22.57
2019-05-12T11:42:27.853Z,23.21
2019-05-12T11:47:24.376Z,24.93
2019-05-12T11:52:19.465Z,27.50
2019-05-12T11:57:13.615Z,29.05
2019-05-12T12:02:07.803Z,24.87
2019-05-12T12:07:03.785Z,26.04
2019-05-12T12:12:03.184Z,37.32
2019-05-12T12:16:54.424Z,32.95
2019-05-12T12:21:50.139Z,27.54
2019-05-12T12:26:44.696Z,25.59
2019-05-12T12:31:49.532Z,41.69
2019-05-12T12:36:43.618Z,29.07
2019-05-12T12:41:37.607Z,29.36
2019-05-12T12:46:33.685Z,47.66
2019-05-12T12:51:27.561Z,47.66
2019-05-12T12:56:25.187Z,30.73
2019-05-12T13:01:26.906Z,31.50
2019-05-12T13:06:17.386Z,44.51
2019-05-12T13:11:11.482Z,48.23
2019-05-12T13:16:05.713Z,40.36
2019-05-12T13:20:59.686Z,40.36
2019-05-12T13:25:54.757Z,45.65
2019-05-12T13:30:49.749Z,45.58
2019-05-12T13:35:44.009Z,48.07
2019-05-12T13:40:39.480Z,34.73
2019-05-12T13:45:33.741Z,42.76
2019-05-12T13:50:27.719Z,35.87
2019-05-12T13:55:23.813Z,35.87
2019-05-12T14:00:17.793Z,30.02
2019-05-12T14:05:15.111Z,42.11
2019-05-12T14:10:08.052Z,38.85
2019-05-12T14:15:04.593Z,35.17
2019-05-12T14:19:58.820Z,27.31
2019-05-12T14:24:54.133Z,25.50
2019-05-12T14:29:48.347Z,23.95
2019-05-12T14:34:43.356Z,23.13
2019-05-12T14:39:40.235Z,22.37
2019-05-12T14:44:38.089Z,21.36
2019-05-12T14:49:30.583Z,20.53
2019-05-12T14:54:24.644Z,21.37
2019-05-12T14:59:18.626Z,23.22
2019-05-12T15:04:13.290Z,26.05
2019-05-12T15:09:11.561Z,30.24
2019-05-12T15:14:03.583Z,34.16
2019-05-12T15:18:57.901Z,34.70
2019-05-12T15:23:53.340Z,34.59
2019-05-12T15:28:47.476Z,28.63
2019-05-12T15:33:43.823Z,24.76
2019-05-12T15:38:37.293Z,22.46
2019-05-12T15:43:35.824Z,22.26
2019-05-12T15:48:27.208Z,22.60
2019-05-12T15:53:22.400Z,22.49
2019-05-12T15:58:17.380Z,21.77
2019-05-12T16:03:13.295Z,21.50
2019-05-12T16:08:07.309Z,21.02
2019-05-12T16:13:01.420Z,20.34
2019-05-12T16:17:59.403Z,19.89
2019-05-12T16:22:53.206Z,19.10
2019-05-12T16:27:47.312Z,18.78
2019-05-12T16:32:46.397Z,18.53
2019-05-12T16:37:37.421Z,18.44
2019-05-12T16:42:33.460Z,18.50
2019-05-12T16:47:29.217Z,18.31
2019-05-12T16:52:24.417Z,18.14
2019-05-12T16:57:18.540Z,18.03
2019-05-12T17:02:13.718Z,17.17
2019-05-12T17:07:09.824Z,16.96
2019-05-12T17:12:05.092Z,17.48
2019-05-12T17:16:59.270Z,18.05
2019-05-12T17:21:55.499Z,18.06
2019-05-12T17:26:49.375Z,17.87
2019-05-12T17:31:44.418Z,17.90
2019-05-12T17:36:38.660Z,17.52
2019-05-12T17:41:40.487Z,17.70
2019-05-12T17:46:32.425Z,17.56
2019-05-12T17:51:26.794Z,17.40
2019-05-12T17:56:25.297Z,17.23
2019-05-12T18:01:17.247Z,16.99
2019-05-12T18:06:11.281Z,16.92
2019-05-12T18:11:11.490Z,16.66
2019-05-12T18:16:05.347Z,16.21
2019-05-12T18:20:57.573Z,15.91
2019-05-12T18:25:53.714Z,15.59
2019-05-12T18:30:47.646Z,15.21
2019-05-12T18:35:43.792Z,14.89
2019-05-12T18:40:37.821Z,14.68
2019-05-12T18:45:34.094Z,14.48
2019-05-12T18:50:31.479Z,14.39
2019-05-12T18:55:29.370Z,14.34
2019-05-12T19:00:22.201Z,14.26
2019-05-12T19:05:21.876Z,14.05
2019-05-12T19:10:14.144Z,13.81
2019-05-12T19:15:10.280Z,13.63
2019-05-12T19:20:06.798Z,13.45
2019-05-12T19:25:00.882Z,13.56
2019-05-12T19:29:55.302Z,13.55
2019-05-12T19:34:49.305Z,13.48
2019-05-12T19:39:44.526Z,13.47
2019-05-12T19:44:38.839Z,13.35
2019-05-12T19:49:46.875Z,13.29
2019-05-12T19:54:30.950Z,13.10
2019-05-12T19:59:25.021Z,12.84
2019-05-12T20:04:32.681Z,12.65
2019-05-12T20:09:15.337Z,12.42
2019-05-12T20:14:56.762Z,12.21
2019-05-12T20:19:49.113Z,12.09
2019-05-12T20:24:44.348Z,11.80
2019-05-12T20:29:38.557Z,11.71
2019-05-12T20:34:47.440Z,11.60
2019-05-12T20:39:28.480Z,11.47
2019-05-12T20:44:23.851Z,11.34
2019-05-12T20:49:20.305Z,11.21
2019-05-12T20:54:18.100Z,11.04
2019-05-12T20:59:13.946Z,10.87
2019-05-12T21:04:07.744Z,10.78
2019-05-12T21:09:04.750Z,10.80
2019-05-12T21:14:00.947Z,10.54
2019-05-12T21:19:02.298Z,10.41
2019-05-12T21:23:53.813Z,10.37
2019-05-12T21:28:48.343Z,10.25
2019-05-12T21:33:42.629Z,10.20
2019-05-12T21:38:36.696Z,10.09
2019-05-12T21:43:30.785Z,10.24
2019-05-12T21:48:28.663Z,10.22
2019-05-12T21:53:20.817Z,10.21
2019-05-12T21:58:15.412Z,10.05
2019-05-12T22:03:14.777Z,9.96
2019-05-12T22:08:17.544Z,9.98
2019-05-12T22:13:09.013Z,10.04
2019-05-12T22:17:59.592Z,9.94
2019-05-12T22:22:53.605Z,10.00
2019-05-12T22:27:47.573Z,10.09
2019-05-12T22:32:43.356Z,9.98
2019-05-12T22:37:37.440Z,9.88
2019-05-12T22:42:33.725Z,9.77
2019-05-12T22:47:27.240Z,9.72
2019-05-12T22:52:21.219Z,9.70
2019-05-12T22:57:15.183Z,9.89
2019-05-12T23:02:09.275Z,9.75
2019-05-12T23:07:03.332Z,9.75
2019-05-12T23:11:57.291Z,9.62
2019-05-12T23:16:51.269Z,9.62
2019-05-12T23:21:49.421Z,9.56
2019-05-12T23:26:42.146Z,9.45
2019-05-12T23:31:36.975Z,9.47
2019-05-12T23:36:36.607Z,9.60
2019-05-12T23:41:26.796Z,9.48
2019-05-12T23:46:20.877Z,9.37
2019-05-12T23:51:14.864Z,9.27
2019-05-12T23:56:08.835Z,9.17
